Details for Thomas Cook Airlines at EGGD




Go Back


Latest METAR
Local Time

EGGD 241350Z AUTO 06018KT 9999 NCD 03/M03 Q1020

24/02/2018, 14:07:13

Description
Results
Thomas Cook Airlines Logo
Number of Pilots based at EGGD
1 Pilots Based here
Number of Thomas Cook Airlines Flights Departed from EGGD
0 Flights Departed
Number of Thomas Cook Airlines Flights Arrived at EGGD
0 Flights Arrived
Number of Thomas Cook Airlines Schedules Departing from EGGD
7 Schedules
Number of Thomas Cook Airlines Schedules Arriving at EGGD
7 Schedules
Number of Thomas Cook Airlines Schedules Departing from EGGD availible today
1 Schedules Today
Number of Thomas Cook Airlines Schedules Arriving at EGGD availible today
1 Schedules Today
Average Landing Rate at EGGD
-232 fpm
Thomas Cook Airlines Average Landing Rate at EGGD
0 fpm
Total Fuel Purchased at EGGD by Thomas Cook Airlines
0.00 kgs / 0.00 lbs

Pilots Based at EGGD


Pilot ID
Pilot Name
Pilot Rank
No. of Flights
No. of Flying Hours
Justin Fryer
1
2.32
Content